UAL154 PTSA-PTPN
Flight info
| Callsign | UAL154 |
|---|---|
| Flight time | 0h 55m |
| Altitude | 32000 |
| Route | UKS A222 AXTEN |
| Aircraft | B38M/M-SDE1FGHILORVWXY/HB1 |
Departure
| Time | 2026-04-29 12:03 |
|---|---|
| Airport | Kosrae International Airport (PTSA) |
Arrival
| Time | 2026-04-29 12:59 |
|---|---|
| Airport | Pohnpei International Airport (PTPN) |
| Time | Latitude | Longitude | Altitude | Speed | Heading |
|---|---|---|---|---|---|
| 2026-04-29 11:31 | 5.35313 | 162.95544 | 30 ft | 0 kts | 110° |
| 2026-04-29 11:58 | 5.35313 | 162.95545 | 30 ft | 0 kts | 101° |
| 2026-04-29 11:59 | 5.35314 | 162.95548 | 30 ft | 1 kts | 78° |
| 2026-04-29 11:59 | 5.35318 | 162.95552 | 30 ft | 1 kts | 43° |
| 2026-04-29 11:59 | 5.35327 | 162.95555 | 30 ft | 2 kts | 13° |
| 2026-04-29 11:59 | 5.35348 | 162.95558 | 30 ft | 4 kts | 7° |
| 2026-04-29 12:00 | 5.35385 | 162.95561 | 30 ft | 6 kts | 360° |
| 2026-04-29 12:00 | 5.35425 | 162.95538 | 31 ft | 8 kts | 312° |
| 2026-04-29 12:00 | 5.35439 | 162.95485 | 31 ft | 8 kts | 264° |
| 2026-04-29 12:00 | 5.35411 | 162.95428 | 31 ft | 10 kts | 237° |
| 2026-04-29 12:01 | 5.35370 | 162.95366 | 34 ft | 11 kts | 236° |
| 2026-04-29 12:01 | 5.35325 | 162.95300 | 33 ft | 12 kts | 239° |
| 2026-04-29 12:01 | 5.35302 | 162.95220 | 33 ft | 10 kts | 249° |
| 2026-04-29 12:01 | 5.35266 | 162.95192 | 33 ft | 5 kts | 153° |
| 2026-04-29 12:02 | 5.35266 | 162.95215 | 33 ft | 3 kts | 56° |
| 2026-04-29 12:02 | 5.35267 | 162.95217 | 33 ft | 0 kts | 56° |
| 2026-04-29 12:03 | 5.35344 | 162.95328 | 33 ft | 59 kts | 55° |
| 2026-04-29 12:03 | 5.35733 | 162.95898 | 31 ft | 135 kts | 56° |
| 2026-04-29 12:03 | 5.36334 | 162.96766 | 467 ft | 159 kts | 57° |
| 2026-04-29 12:03 | 5.37146 | 162.97539 | 1257 ft | 163 kts | 32° |
| 2026-04-29 12:04 | 5.38159 | 162.98082 | 1987 ft | 174 kts | 28° |
| 2026-04-29 12:04 | 5.39330 | 162.98639 | 2433 ft | 199 kts | 26° |
| 2026-04-29 12:04 | 5.40681 | 162.99275 | 2932 ft | 229 kts | 27° |
| 2026-04-29 12:04 | 5.42283 | 162.99629 | 3677 ft | 248 kts | 356° |
| 2026-04-29 12:05 | 5.43918 | 162.98953 | 4454 ft | 268 kts | 321° |
| 2026-04-29 12:05 | 5.44953 | 162.97371 | 5333 ft | 280 kts | 287° |
| 2026-04-29 12:05 | 5.45401 | 162.95457 | 6318 ft | 284 kts | 288° |
| 2026-04-29 12:05 | 5.46002 | 162.93547 | 7210 ft | 288 kts | 289° |
| 2026-04-29 12:06 | 5.46620 | 162.91631 | 8214 ft | 289 kts | 288° |
| 2026-04-29 12:06 | 5.47235 | 162.89731 | 9189 ft | 291 kts | 288° |
| 2026-04-29 12:06 | 5.47865 | 162.87793 | 10121 ft | 294 kts | 288° |
| 2026-04-29 12:06 | 5.48521 | 162.85794 | 10666 ft | 311 kts | 288° |
| 2026-04-29 12:07 | 5.49231 | 162.83681 | 11117 ft | 327 kts | 288° |
| 2026-04-29 12:07 | 5.49966 | 162.81488 | 11753 ft | 335 kts | 288° |
| 2026-04-29 12:07 | 5.50699 | 162.79259 | 12529 ft | 339 kts | 287° |
| 2026-04-29 12:07 | 5.51438 | 162.77006 | 13325 ft | 340 kts | 287° |
| 2026-04-29 12:08 | 5.52173 | 162.74736 | 14053 ft | 344 kts | 287° |
| 2026-04-29 12:08 | 5.52922 | 162.72429 | 14596 ft | 351 kts | 287° |
| 2026-04-29 12:08 | 5.53681 | 162.70095 | 15262 ft | 353 kts | 287° |
| 2026-04-29 12:08 | 5.54442 | 162.67748 | 15912 ft | 355 kts | 287° |
| 2026-04-29 12:09 | 5.55208 | 162.65385 | 16542 ft | 358 kts | 287° |
| 2026-04-29 12:09 | 5.55984 | 162.62988 | 17060 ft | 364 kts | 287° |
| 2026-04-29 12:09 | 5.56767 | 162.60578 | 17733 ft | 364 kts | 287° |
| 2026-04-29 12:09 | 5.57555 | 162.58140 | 18201 ft | 370 kts | 287° |
| 2026-04-29 12:10 | 5.58351 | 162.55682 | 18734 ft | 372 kts | 287° |
| 2026-04-29 12:10 | 5.59157 | 162.53196 | 19154 ft | 376 kts | 287° |
| 2026-04-29 12:10 | 5.59966 | 162.50694 | 19646 ft | 379 kts | 287° |
| 2026-04-29 12:10 | 5.60787 | 162.48161 | 20051 ft | 383 kts | 287° |
| 2026-04-29 12:11 | 5.61615 | 162.45606 | 20506 ft | 386 kts | 287° |
| 2026-04-29 12:11 | 5.62446 | 162.43039 | 20986 ft | 388 kts | 287° |
| 2026-04-29 12:11 | 5.63284 | 162.40447 | 21399 ft | 392 kts | 287° |
| 2026-04-29 12:11 | 5.64131 | 162.37831 | 21843 ft | 395 kts | 286° |
| 2026-04-29 12:12 | 5.64983 | 162.35200 | 22270 ft | 398 kts | 287° |
| 2026-04-29 12:12 | 5.65842 | 162.32544 | 22681 ft | 402 kts | 287° |
| 2026-04-29 12:12 | 5.66707 | 162.29866 | 23098 ft | 405 kts | 287° |
| 2026-04-29 12:12 | 5.67567 | 162.27206 | 23495 ft | 408 kts | 286° |
| 2026-04-29 12:13 | 5.68446 | 162.24487 | 23833 ft | 411 kts | 287° |
| 2026-04-29 12:13 | 5.69331 | 162.21750 | 24164 ft | 414 kts | 287° |
| 2026-04-29 12:13 | 5.70221 | 162.18996 | 24495 ft | 416 kts | 287° |
| 2026-04-29 12:13 | 5.71116 | 162.16218 | 24815 ft | 419 kts | 287° |
| 2026-04-29 12:14 | 5.72020 | 162.13424 | 25125 ft | 423 kts | 287° |
| 2026-04-29 12:14 | 5.72929 | 162.10610 | 25486 ft | 425 kts | 287° |
| 2026-04-29 12:14 | 5.73841 | 162.07775 | 25792 ft | 428 kts | 287° |
| 2026-04-29 12:14 | 5.74763 | 162.04929 | 26154 ft | 429 kts | 287° |
| 2026-04-29 12:15 | 5.75684 | 162.02065 | 26464 ft | 433 kts | 287° |
| 2026-04-29 12:15 | 5.76616 | 161.99180 | 26756 ft | 436 kts | 288° |
| 2026-04-29 12:15 | 5.77551 | 161.96279 | 27094 ft | 438 kts | 288° |
| 2026-04-29 12:15 | 5.78493 | 161.93360 | 27395 ft | 441 kts | 288° |
| 2026-04-29 12:16 | 5.79443 | 161.90422 | 27726 ft | 443 kts | 288° |
| 2026-04-29 12:16 | 5.80391 | 161.87474 | 28037 ft | 445 kts | 288° |
| 2026-04-29 12:16 | 5.81348 | 161.84512 | 28366 ft | 447 kts | 288° |
| 2026-04-29 12:16 | 5.82302 | 161.81537 | 28695 ft | 449 kts | 288° |
| 2026-04-29 12:17 | 5.83268 | 161.78544 | 28937 ft | 452 kts | 288° |
| 2026-04-29 12:17 | 5.84236 | 161.75536 | 29267 ft | 454 kts | 288° |
| 2026-04-29 12:17 | 5.85211 | 161.72512 | 29527 ft | 457 kts | 288° |
| 2026-04-29 12:17 | 5.86189 | 161.69472 | 29835 ft | 458 kts | 288° |
| 2026-04-29 12:18 | 5.87171 | 161.66420 | 30087 ft | 460 kts | 288° |
| 2026-04-29 12:18 | 5.88159 | 161.63353 | 30322 ft | 462 kts | 288° |
| 2026-04-29 12:18 | 5.89149 | 161.60274 | 30568 ft | 464 kts | 288° |
| 2026-04-29 12:18 | 5.90142 | 161.57184 | 30814 ft | 466 kts | 288° |
| 2026-04-29 12:19 | 5.91139 | 161.54083 | 31044 ft | 468 kts | 288° |
| 2026-04-29 12:19 | 5.92140 | 161.50968 | 31279 ft | 469 kts | 288° |
| 2026-04-29 12:19 | 5.93144 | 161.47846 | 31522 ft | 471 kts | 288° |
| 2026-04-29 12:19 | 5.94152 | 161.44709 | 31760 ft | 472 kts | 288° |
| 2026-04-29 12:20 | 5.95163 | 161.41563 | 31915 ft | 475 kts | 288° |
| 2026-04-29 12:20 | 5.96182 | 161.38398 | 31929 ft | 477 kts | 288° |
| 2026-04-29 12:20 | 5.98213 | 161.32065 | 31919 ft | 476 kts | 288° |
| 2026-04-29 12:21 | 6.00241 | 161.25740 | 31919 ft | 476 kts | 288° |
| 2026-04-29 12:21 | 6.02255 | 161.19456 | 31918 ft | 476 kts | 288° |
| 2026-04-29 12:22 | 6.04281 | 161.13133 | 31919 ft | 476 kts | 288° |
| 2026-04-29 12:22 | 6.06306 | 161.06809 | 31920 ft | 476 kts | 288° |
| 2026-04-29 12:23 | 6.08331 | 161.00485 | 31923 ft | 476 kts | 288° |
| 2026-04-29 12:23 | 6.10355 | 160.94157 | 31922 ft | 475 kts | 288° |
| 2026-04-29 12:24 | 6.12377 | 160.87835 | 31918 ft | 475 kts | 289° |
| 2026-04-29 12:24 | 6.14395 | 160.81521 | 31922 ft | 474 kts | 288° |
| 2026-04-29 12:25 | 6.16414 | 160.75205 | 31923 ft | 474 kts | 288° |
| 2026-04-29 12:26 | 6.19436 | 160.65739 | 31922 ft | 474 kts | 288° |
| 2026-04-29 12:26 | 6.21451 | 160.59429 | 31922 ft | 474 kts | 288° |
| 2026-04-29 12:27 | 6.23464 | 160.53117 | 31924 ft | 474 kts | 288° |
| 2026-04-29 12:27 | 6.25481 | 160.46793 | 31923 ft | 475 kts | 288° |
| 2026-04-29 12:28 | 6.27497 | 160.40468 | 31922 ft | 475 kts | 288° |
| 2026-04-29 12:28 | 6.29512 | 160.34142 | 31922 ft | 475 kts | 288° |
| 2026-04-29 12:29 | 6.31527 | 160.27816 | 31922 ft | 475 kts | 288° |
| 2026-04-29 12:29 | 6.33539 | 160.21493 | 31922 ft | 475 kts | 288° |
| 2026-04-29 12:30 | 6.35551 | 160.15171 | 31920 ft | 475 kts | 288° |
| 2026-04-29 12:30 | 6.37565 | 160.08838 | 31922 ft | 475 kts | 288° |
| 2026-04-29 12:31 | 6.39559 | 160.02548 | 31865 ft | 461 kts | 288° |
| 2026-04-29 12:31 | 6.40520 | 159.99508 | 31572 ft | 453 kts | 288° |
| 2026-04-29 12:31 | 6.41475 | 159.96496 | 31033 ft | 452 kts | 288° |
| 2026-04-29 12:31 | 6.42434 | 159.93483 | 30400 ft | 453 kts | 288° |
| 2026-04-29 12:32 | 6.43396 | 159.90461 | 29811 ft | 453 kts | 288° |
| 2026-04-29 12:32 | 6.44339 | 159.87491 | 29241 ft | 451 kts | 288° |
| 2026-04-29 12:32 | 6.45289 | 159.84498 | 28725 ft | 448 kts | 288° |
| 2026-04-29 12:32 | 6.46232 | 159.81529 | 28216 ft | 444 kts | 287° |
| 2026-04-29 12:33 | 6.47168 | 159.78579 | 27707 ft | 441 kts | 287° |
| 2026-04-29 12:33 | 6.48098 | 159.75650 | 27208 ft | 438 kts | 287° |
| 2026-04-29 12:33 | 6.49022 | 159.72737 | 26715 ft | 436 kts | 287° |
| 2026-04-29 12:33 | 6.49939 | 159.69843 | 26226 ft | 433 kts | 287° |
| 2026-04-29 12:34 | 6.50852 | 159.66966 | 25743 ft | 431 kts | 286° |
| 2026-04-29 12:34 | 6.51759 | 159.64106 | 25267 ft | 428 kts | 286° |
| 2026-04-29 12:34 | 6.52662 | 159.61259 | 24799 ft | 426 kts | 286° |
| 2026-04-29 12:34 | 6.53559 | 159.58429 | 24334 ft | 424 kts | 286° |
| 2026-04-29 12:35 | 6.54451 | 159.55613 | 23878 ft | 421 kts | 286° |
| 2026-04-29 12:35 | 6.55038 | 159.53759 | 23579 ft | 420 kts | 286° |
| 2026-04-29 12:35 | 6.56221 | 159.50027 | 22889 ft | 417 kts | 286° |
| 2026-04-29 12:35 | 6.57095 | 159.47265 | 22447 ft | 413 kts | 286° |
| 2026-04-29 12:36 | 6.57960 | 159.44528 | 22009 ft | 408 kts | 286° |
| 2026-04-29 12:36 | 6.58817 | 159.41820 | 21589 ft | 404 kts | 286° |
| 2026-04-29 12:36 | 6.59664 | 159.39139 | 21176 ft | 400 kts | 286° |
| 2026-04-29 12:36 | 6.60504 | 159.36481 | 20764 ft | 397 kts | 286° |
| 2026-04-29 12:37 | 6.61337 | 159.33848 | 20362 ft | 394 kts | 286° |
| 2026-04-29 12:37 | 6.62163 | 159.31234 | 19959 ft | 391 kts | 286° |
| 2026-04-29 12:37 | 6.62984 | 159.28638 | 19557 ft | 388 kts | 286° |
| 2026-04-29 12:37 | 6.63797 | 159.26063 | 19158 ft | 385 kts | 286° |
| 2026-04-29 12:38 | 6.64606 | 159.23503 | 18765 ft | 383 kts | 286° |
| 2026-04-29 12:38 | 6.65410 | 159.20961 | 18372 ft | 380 kts | 286° |
| 2026-04-29 12:38 | 6.66208 | 159.18434 | 17944 ft | 378 kts | 286° |
| 2026-04-29 12:38 | 6.67001 | 159.15924 | 17524 ft | 375 kts | 286° |
| 2026-04-29 12:39 | 6.67786 | 159.13436 | 17135 ft | 371 kts | 286° |
| 2026-04-29 12:39 | 6.68564 | 159.10971 | 16747 ft | 368 kts | 287° |
| 2026-04-29 12:39 | 6.69333 | 159.08533 | 16370 ft | 364 kts | 287° |
| 2026-04-29 12:39 | 6.70097 | 159.06113 | 15990 ft | 361 kts | 287° |
| 2026-04-29 12:40 | 6.70853 | 159.03715 | 15620 ft | 358 kts | 286° |
| 2026-04-29 12:40 | 6.71594 | 159.01368 | 15244 ft | 355 kts | 287° |
| 2026-04-29 12:40 | 6.72347 | 158.98980 | 14884 ft | 352 kts | 286° |
| 2026-04-29 12:40 | 6.73075 | 158.96671 | 14525 ft | 350 kts | 286° |
| 2026-04-29 12:41 | 6.73817 | 158.94316 | 14163 ft | 347 kts | 287° |
| 2026-04-29 12:41 | 6.74535 | 158.92043 | 13806 ft | 345 kts | 287° |
| 2026-04-29 12:41 | 6.75257 | 158.89750 | 13412 ft | 342 kts | 287° |
| 2026-04-29 12:41 | 6.75973 | 158.87477 | 13038 ft | 339 kts | 287° |
| 2026-04-29 12:42 | 6.76683 | 158.85225 | 12691 ft | 336 kts | 287° |
| 2026-04-29 12:42 | 6.77385 | 158.82995 | 12339 ft | 333 kts | 286° |
| 2026-04-29 12:42 | 6.78058 | 158.80781 | 12016 ft | 328 kts | 281° |
| 2026-04-29 12:42 | 6.78267 | 158.78541 | 11894 ft | 316 kts | 269° |
| 2026-04-29 12:43 | 6.78264 | 158.76371 | 11836 ft | 304 kts | 269° |
| 2026-04-29 12:43 | 6.78257 | 158.74281 | 11767 ft | 294 kts | 269° |
| 2026-04-29 12:43 | 6.78266 | 158.72888 | 11728 ft | 299 kts | 272° |
| 2026-04-29 12:43 | 6.78684 | 158.70799 | 11662 ft | 310 kts | 287° |
| 2026-04-29 12:44 | 6.79382 | 158.68756 | 11601 ft | 315 kts | 288° |
| 2026-04-29 12:44 | 6.80349 | 158.65955 | 11508 ft | 317 kts | 288° |
| 2026-04-29 12:44 | 6.80827 | 158.64565 | 11473 ft | 317 kts | 288° |
| 2026-04-29 12:44 | 6.81542 | 158.62463 | 11408 ft | 318 kts | 287° |
| 2026-04-29 12:45 | 6.81991 | 158.60302 | 11345 ft | 315 kts | 275° |
| 2026-04-29 12:45 | 6.82239 | 158.58115 | 11282 ft | 312 kts | 275° |
| 2026-04-29 12:45 | 6.82468 | 158.55971 | 11083 ft | 306 kts | 275° |
| 2026-04-29 12:45 | 6.82710 | 158.53846 | 10742 ft | 305 kts | 275° |
| 2026-04-29 12:46 | 6.82950 | 158.51730 | 10441 ft | 303 kts | 275° |
| 2026-04-29 12:46 | 6.83184 | 158.49632 | 10167 ft | 300 kts | 274° |
| 2026-04-29 12:46 | 6.83425 | 158.47556 | 9894 ft | 297 kts | 275° |
| 2026-04-29 12:46 | 6.83656 | 158.45499 | 9603 ft | 295 kts | 275° |
| 2026-04-29 12:47 | 6.83888 | 158.43458 | 9301 ft | 293 kts | 275° |
| 2026-04-29 12:47 | 6.84120 | 158.41432 | 9007 ft | 290 kts | 275° |
| 2026-04-29 12:47 | 6.84359 | 158.39422 | 8708 ft | 288 kts | 275° |
| 2026-04-29 12:47 | 6.84589 | 158.37431 | 8470 ft | 284 kts | 275° |
| 2026-04-29 12:48 | 6.84822 | 158.35472 | 8270 ft | 281 kts | 275° |
| 2026-04-29 12:48 | 6.85061 | 158.33529 | 8075 ft | 279 kts | 275° |
| 2026-04-29 12:48 | 6.85292 | 158.31598 | 7865 ft | 278 kts | 274° |
| 2026-04-29 12:48 | 6.85516 | 158.29668 | 7691 ft | 277 kts | 275° |
| 2026-04-29 12:49 | 6.85742 | 158.27771 | 7491 ft | 276 kts | 275° |
| 2026-04-29 12:49 | 6.85956 | 158.25854 | 7283 ft | 275 kts | 275° |
| 2026-04-29 12:49 | 6.86166 | 158.23942 | 7088 ft | 275 kts | 275° |
| 2026-04-29 12:49 | 6.86379 | 158.22033 | 6894 ft | 274 kts | 274° |
| 2026-04-29 12:50 | 6.86599 | 158.20127 | 6744 ft | 274 kts | 275° |
| 2026-04-29 12:50 | 6.86807 | 158.18225 | 6551 ft | 273 kts | 275° |
| 2026-04-29 12:50 | 6.87025 | 158.16327 | 6363 ft | 273 kts | 275° |
| 2026-04-29 12:50 | 6.87247 | 158.14434 | 6160 ft | 271 kts | 275° |
| 2026-04-29 12:51 | 6.87462 | 158.12565 | 5961 ft | 267 kts | 275° |
| 2026-04-29 12:51 | 6.87672 | 158.10730 | 5761 ft | 262 kts | 275° |
| 2026-04-29 12:51 | 6.87875 | 158.08926 | 5555 ft | 257 kts | 274° |
| 2026-04-29 12:51 | 6.88082 | 158.07154 | 5353 ft | 253 kts | 275° |
| 2026-04-29 12:52 | 6.88276 | 158.05410 | 5127 ft | 249 kts | 275° |
| 2026-04-29 12:52 | 6.88466 | 158.03687 | 4876 ft | 247 kts | 275° |
| 2026-04-29 12:52 | 6.88648 | 158.01980 | 4637 ft | 244 kts | 275° |
| 2026-04-29 12:52 | 6.88828 | 158.00285 | 4379 ft | 242 kts | 275° |
| 2026-04-29 12:53 | 6.89304 | 157.98680 | 4105 ft | 242 kts | 305° |
| 2026-04-29 12:53 | 6.90600 | 157.97672 | 3815 ft | 238 kts | 345° |
| 2026-04-29 12:53 | 6.92209 | 157.97476 | 3632 ft | 231 kts | 0° |
| 2026-04-29 12:53 | 6.93814 | 157.97519 | 3497 ft | 231 kts | 5° |
| 2026-04-29 12:54 | 6.95415 | 157.97624 | 3317 ft | 230 kts | 8° |
| 2026-04-29 12:54 | 6.96898 | 157.98126 | 3120 ft | 221 kts | 32° |
| 2026-04-29 12:54 | 6.97981 | 157.99128 | 3097 ft | 208 kts | 59° |
| 2026-04-29 12:54 | 6.98591 | 158.00434 | 3092 ft | 207 kts | 77° |
| 2026-04-29 12:55 | 6.98727 | 158.01857 | 3074 ft | 204 kts | 92° |
| 2026-04-29 12:55 | 6.98688 | 158.03286 | 3066 ft | 205 kts | 92° |
| 2026-04-29 12:55 | 6.98655 | 158.04690 | 3033 ft | 195 kts | 92° |
| 2026-04-29 12:55 | 6.98637 | 158.06020 | 2934 ft | 185 kts | 90° |
| 2026-04-29 12:56 | 6.98629 | 158.07297 | 2664 ft | 179 kts | 91° |
| 2026-04-29 12:56 | 6.98608 | 158.08523 | 2371 ft | 170 kts | 91° |
| 2026-04-29 12:56 | 6.98572 | 158.09664 | 2112 ft | 160 kts | 91° |
| 2026-04-29 12:56 | 6.98570 | 158.10778 | 1852 ft | 158 kts | 90° |
| 2026-04-29 12:57 | 6.98547 | 158.11879 | 1565 ft | 156 kts | 90° |
| 2026-04-29 12:57 | 6.98550 | 158.12970 | 1314 ft | 155 kts | 89° |
| 2026-04-29 12:57 | 6.98555 | 158.14070 | 1139 ft | 158 kts | 93° |
| 2026-04-29 12:57 | 6.98529 | 158.15155 | 960 ft | 153 kts | 89° |
| 2026-04-29 12:58 | 6.98516 | 158.16235 | 801 ft | 156 kts | 90° |
| 2026-04-29 12:58 | 6.98522 | 158.17311 | 586 ft | 152 kts | 90° |
| 2026-04-29 12:58 | 6.98519 | 158.18360 | 376 ft | 147 kts | 91° |
| 2026-04-29 12:58 | 6.98518 | 158.19410 | 165 ft | 152 kts | 90° |
| 2026-04-29 12:59 | 6.98515 | 158.20436 | 23 ft | 137 kts | 91° |
| 2026-04-29 12:59 | 6.98509 | 158.21188 | 20 ft | 75 kts | 90° |
| 2026-04-29 12:59 | 6.98508 | 158.21555 | 21 ft | 40 kts | 90° |
| 2026-04-29 12:59 | 6.98499 | 158.21768 | 21 ft | 22 kts | 108° |
| 2026-04-29 13:00 | 6.98482 | 158.21862 | 21 ft | 9 kts | 27° |
| 2026-04-29 13:00 | 6.98509 | 158.21837 | 19 ft | 6 kts | 264° |
| 2026-04-29 13:00 | 6.98508 | 158.21775 | 19 ft | 13 kts | 272° |
| 2026-04-29 13:00 | 6.98508 | 158.21668 | 20 ft | 16 kts | 269° |
| 2026-04-29 13:01 | 6.98508 | 158.21546 | 21 ft | 18 kts | 270° |
| 2026-04-29 13:01 | 6.98509 | 158.21413 | 20 ft | 21 kts | 270° |
| 2026-04-29 13:01 | 6.98510 | 158.21258 | 19 ft | 23 kts | 270° |
| 2026-04-29 13:01 | 6.98511 | 158.21097 | 21 ft | 24 kts | 270° |
| 2026-04-29 13:02 | 6.98512 | 158.20923 | 20 ft | 26 kts | 270° |
| 2026-04-29 13:02 | 6.98512 | 158.20731 | 19 ft | 27 kts | 270° |
| 2026-04-29 13:02 | 6.98513 | 158.20553 | 20 ft | 22 kts | 270° |
| 2026-04-29 13:02 | 6.98513 | 158.20421 | 19 ft | 18 kts | 269° |
| 2026-04-29 13:03 | 6.98457 | 158.20359 | 20 ft | 13 kts | 181° |
| 2026-04-29 13:03 | 6.98370 | 158.20358 | 20 ft | 9 kts | 179° |
| 2026-04-29 13:03 | 6.98307 | 158.20358 | 20 ft | 9 kts | 180° |
| 2026-04-29 13:03 | 6.98261 | 158.20388 | 20 ft | 9 kts | 143° |
| 2026-04-29 13:04 | 6.98214 | 158.20394 | 18 ft | 5 kts | 179° |
| 2026-04-29 13:04 | 6.98194 | 158.20395 | 20 ft | 0 kts | 178° |